Time;durP1;ratioP1;P1;durP2;ratioP2;P2;SDS_P1;SDS_P2;PMS_P1;PMS_P2;Temp;Humidity;BMP_temperature;BMP_pressure;BME280_temperature;BME280_humidity;BME280_pressure;Samples;Min_cycle;Max_cycle;Signal;HPM_P1;HPM_P2
2021/04/07 00:03:56;;;;;;;4.07;2.00;;;;;;;-0.61;100.00;97471.83;3754638;78;43267;-19
2021/04/07 00:09:03;;;;;;;3.23;2.47;;;;;;;-0.62;100.00;97480.23;3781733;78;44010;-20
2021/04/07 00:14:10;;;;;;;2.27;1.80;;;;;;;-0.63;100.00;97475.89;3773233;78;44064;-20
2021/04/07 00:19:17;;;;;;;2.87;1.90;;;;;;;-0.63;100.00;97478.53;3756040;78;44087;-19
2021/04/07 00:24:23;;;;;;;9.37;2.57;;;;;;;-0.62;100.00;97465.67;3741908;78;44087;-19
2021/04/07 00:29:29;;;;;;;3.60;2.10;;;;;;;-0.58;100.00;97475.55;3740396;78;44491;-19
2021/04/07 00:34:35;;;;;;;2.90;2.20;;;;;;;-0.60;100.00;97477.48;3742056;78;43727;-19
2021/04/07 00:39:41;;;;;;;3.80;2.23;;;;;;;-0.54;100.00;97470.89;3758817;78;42927;-21
2021/04/07 00:44:47;;;;;;;4.77;2.30;;;;;;;-0.56;100.00;97486.03;3747026;78;44025;-21
2021/04/07 00:49:53;;;;;;;3.00;2.20;;;;;;;-0.56;100.00;97488.18;3740890;78;43677;-21
2021/04/07 00:55:00;;;;;;;3.03;2.00;;;;;;;-0.57;100.00;97490.95;3744727;78;43985;-19
2021/04/07 01:00:08;;;;;;;4.40;1.90;;;;;;;-0.56;100.00;97503.23;3738546;78;43419;-19
2021/04/07 01:05:15;;;;;;;4.93;2.67;;;;;;;-0.57;100.00;97504.18;3756839;78;43435;-23
2021/04/07 01:10:21;;;;;;;3.23;2.03;;;;;;;-0.55;100.00;97512.85;3760471;78;43991;-24
2021/04/07 01:15:28;;;;;;;2.63;2.17;;;;;;;-0.58;100.00;97507.78;3643655;80;43342;-23
2021/04/07 01:20:35;;;;;;;3.17;1.93;;;;;;;-0.54;100.00;97505.28;3745893;78;42999;-21
2021/04/07 01:25:41;;;;;;;4.30;1.90;;;;;;;-0.57;100.00;97505.50;3651808;80;43726;-23
2021/04/07 01:30:47;;;;;;;4.73;2.37;;;;;;;-0.55;100.00;97510.20;3750512;78;43705;-25
2021/04/07 01:35:53;;;;;;;6.13;2.30;;;;;;;-0.53;100.00;97516.23;3758283;78;44046;-25
2021/04/07 01:41:02;;;;;;;4.50;2.13;;;;;;;-0.55;100.00;97514.17;3761271;78;44530;-25
2021/04/07 01:46:07;;;;;;;4.27;2.53;;;;;;;-0.55;100.00;97524.76;3701831;79;44480;-25
2021/04/07 01:51:13;;;;;;;3.33;2.20;;;;;;;-0.56;100.00;97531.00;3750148;78;42976;-25
2021/04/07 01:56:19;;;;;;;4.90;2.23;;;;;;;-0.57;100.00;97521.38;3771145;78;44732;-25
2021/04/07 02:01:25;;;;;;;4.40;2.40;;;;;;;-0.59;100.00;97519.31;3768888;78;44011;-25
2021/04/07 02:06:32;;;;;;;2.73;2.20;;;;;;;-0.61;100.00;97515.47;3673902;80;43674;-25
2021/04/07 02:11:42;;;;;;;3.67;1.87;;;;;;;-0.60;100.00;97521.13;3761688;78;44022;-25
2021/04/07 02:16:51;;;;;;;3.23;1.90;;;;;;;-0.57;100.00;97510.80;3755635;78;44051;-25
2021/04/07 02:22:02;;;;;;;3.00;2.00;;;;;;;-0.59;100.00;97523.28;3752547;78;43708;-25
2021/04/07 02:27:13;;;;;;;4.90;2.50;;;;;;;-0.59;100.00;97525.93;3745771;78;44050;-26
2021/04/07 02:32:18;;;;;;;5.57;2.23;;;;;;;-0.58;100.00;97538.20;3746165;78;44205;-25
2021/04/07 02:37:25;;;;;;;5.27;2.30;;;;;;;-0.57;100.00;97533.28;3622907;80;43717;-25
2021/04/07 02:42:30;;;;;;;3.97;2.40;;;;;;;-0.61;100.00;97547.22;3638552;80;42761;-25
2021/04/07 02:47:36;;;;;;;3.63;2.17;;;;;;;-0.56;100.00;97549.52;3631851;80;43419;-26
2021/04/07 02:52:42;;;;;;;4.93;2.23;;;;;;;-0.51;100.00;97551.34;3642318;80;44033;-26
2021/04/07 02:57:49;;;;;;;4.57;2.40;;;;;;;-0.48;100.00;97552.44;3645001;79;43352;-25
2021/04/07 03:02:55;;;;;;;6.17;2.30;;;;;;;-0.53;100.00;97563.86;3764628;78;42989;-26
2021/04/07 03:08:00;;;;;;;4.40;2.43;;;;;;;-0.61;100.00;97557.80;3760968;78;44073;-25
2021/04/07 03:13:07;;;;;;;4.00;2.60;;;;;;;-0.75;100.00;97570.69;3765267;78;42792;-26
2021/04/07 03:18:14;;;;;;;5.07;2.40;;;;;;;-0.81;100.00;97573.79;3756001;78;44749;-26
2021/04/07 03:23:20;;;;;;;3.07;2.50;;;;;;;-0.85;100.00;97577.59;3757159;78;43360;-26
2021/04/07 03:28:27;;;;;;;5.63;2.80;;;;;;;-0.80;100.00;97574.99;3764482;78;43368;-26
2021/04/07 03:33:35;;;;;;;5.90;2.77;;;;;;;-0.83;100.00;97570.41;3767742;78;43484;-23
2021/04/07 03:38:41;;;;;;;5.20;2.47;;;;;;;-0.91;100.00;97576.24;3754164;78;44035;-19
2021/04/07 03:43:48;;;;;;;4.00;2.40;;;;;;;-1.05;100.00;97584.30;3762268;78;43314;-19
2021/04/07 03:48:54;;;;;;;7.17;3.30;;;;;;;-1.13;100.00;97584.87;3763574;78;43669;-19
2021/04/07 03:54:00;;;;;;;5.90;3.30;;;;;;;-1.22;100.00;97589.47;3745082;78;43376;-19
2021/04/07 03:59:06;;;;;;;8.07;3.20;;;;;;;-1.28;100.00;97596.89;3758568;78;43716;-20
2021/04/07 04:04:13;;;;;;;9.00;3.00;;;;;;;-1.33;100.00;97609.56;3768794;78;43681;-20
2021/04/07 04:09:19;;;;;;;5.87;3.00;;;;;;;-1.41;100.00;97615.37;3725855;78;44122;-20
2021/04/07 04:14:26;;;;;;;6.47;3.33;;;;;;;-1.46;100.00;97614.00;3720133;78;41887;-20
2021/04/07 04:19:32;;;;;;;5.43;3.00;;;;;;;-1.44;100.00;97617.39;3751801;78;44079;-20
2021/04/07 04:24:38;;;;;;;6.93;3.00;;;;;;;-1.43;100.00;97622.58;3753071;78;44385;-20
2021/04/07 04:29:45;;;;;;;5.97;2.93;;;;;;;-1.41;100.00;97634.36;3747654;78;43653;-20
2021/04/07 04:34:51;;;;;;;7.07;3.40;;;;;;;-1.34;100.00;97636.94;3753447;78;42898;-20
2021/04/07 04:39:58;;;;;;;5.90;3.60;;;;;;;-1.30;100.00;97643.70;3750449;78;43308;-20
2021/04/07 04:45:06;;;;;;;4.93;3.00;;;;;;;-1.24;100.00;97655.65;3756624;78;44035;-20
2021/04/07 04:50:13;;;;;;;6.33;3.33;;;;;;;-1.23;100.00;97675.84;3743675;78;44157;-20
2021/04/07 04:55:19;;;;;;;4.70;3.03;;;;;;;-1.22;100.00;97670.07;3751679;77;44000;-20
2021/04/07 05:00:26;;;;;;;5.23;3.00;;;;;;;-1.29;100.00;97683.72;3763269;77;43419;-19
2021/04/07 05:05:32;;;;;;;6.17;3.20;;;;;;;-1.32;100.00;97704.23;3768782;77;43550;-19
2021/04/07 05:10:38;;;;;;;5.97;3.50;;;;;;;-1.30;100.00;97701.84;3765501;77;44104;-21
2021/04/07 05:15:43;;;;;;;5.17;3.33;;;;;;;-1.29;100.00;97709.28;3775663;77;44059;-21
2021/04/07 05:20:49;;;;;;;9.20;3.73;;;;;;;-1.28;100.00;97715.80;3768441;77;44027;-21
2021/04/07 05:25:55;;;;;;;6.40;3.67;;;;;;;-1.26;100.00;97722.30;3771368;77;43261;-20
2021/04/07 05:31:01;;;;;;;7.60;3.63;;;;;;;-1.17;100.00;97728.76;3748126;77;44051;-20
2021/04/07 05:36:10;;;;;;;6.00;3.83;;;;;;;-1.15;100.00;97734.80;3771800;77;43361;-20
2021/04/07 05:41:18;;;;;;;4.80;3.20;;;;;;;-1.09;100.00;97739.65;3771412;77;43648;-20
2021/04/07 05:46:26;;;;;;;5.37;3.23;;;;;;;-1.05;100.00;97749.07;3771792;77;43580;-20
2021/04/07 05:51:32;;;;;;;4.70;2.73;;;;;;;-1.02;100.00;97759.44;3763442;77;43987;-20
2021/04/07 05:56:38;;;;;;;5.20;3.23;;;;;;;-1.01;100.00;97767.75;3809750;77;44029;-20
2021/04/07 06:01:44;;;;;;;7.70;2.93;;;;;;;-0.91;100.00;97772.40;3811482;77;43184;-20
2021/04/07 06:06:50;;;;;;;5.47;2.93;;;;;;;-0.87;100.00;97778.69;3772392;77;43028;-19
2021/04/07 06:11:58;;;;;;;5.90;2.50;;;;;;;-0.73;100.00;97777.73;3768243;77;44023;-20
2021/04/07 06:17:03;;;;;;;5.03;2.20;;;;;;;-0.75;100.00;97784.92;3765122;77;43692;-20
2021/04/07 06:22:10;;;;;;;5.27;2.10;;;;;;;-0.65;100.00;97792.59;3745630;77;43102;-20
2021/04/07 06:27:15;;;;;;;3.00;1.70;;;;;;;-0.60;100.00;97800.69;3686684;79;43392;-19
2021/04/07 06:32:21;;;;;;;7.80;1.87;;;;;;;-0.53;100.00;97802.81;3682943;79;44021;-19
2021/04/07 06:37:27;;;;;;;4.03;2.10;;;;;;;-0.50;100.00;97813.64;3672765;79;43732;-21
2021/04/07 06:42:34;;;;;;;4.73;1.50;;;;;;;-0.48;100.00;97804.67;3682934;79;44564;-19
2021/04/07 06:47:41;;;;;;;9.03;2.13;;;;;;;-0.45;100.00;97828.74;3682070;79;43267;-20
2021/04/07 06:52:47;;;;;;;6.10;2.30;;;;;;;-0.36;100.00;97822.80;3636444;79;44003;-20
2021/04/07 06:57:53;;;;;;;4.40;1.87;;;;;;;-0.21;100.00;97818.72;3626120;79;44512;-20
2021/04/07 07:03:05;;;;;;;6.73;2.43;;;;;;;-0.16;100.00;97832.45;3611236;80;44060;-20
2021/04/07 07:08:13;;;;;;;4.80;1.60;;;;;;;-0.11;100.00;97830.80;3589023;80;44045;-20
2021/04/07 07:13:21;;;;;;;6.87;2.30;;;;;;;-0.18;100.00;97838.36;3587068;80;43680;-21
2021/04/07 07:18:29;;;;;;;6.70;2.07;;;;;;;-0.20;100.00;97836.30;3614458;80;43583;-22
2021/04/07 07:23:36;;;;;;;4.77;2.13;;;;;;;-0.28;100.00;97826.24;3670123;79;44069;-19
2021/04/07 07:28:46;;;;;;;5.37;1.70;;;;;;;-0.26;100.00;97830.95;3660045;79;43302;-20
2021/04/07 07:33:52;;;;;;;6.07;2.20;;;;;;;0.00;100.00;97857.40;3680483;79;44150;-20
2021/04/07 07:38:59;;;;;;;5.00;1.77;;;;;;;0.26;100.00;97844.06;3660242;79;43769;-20
2021/04/07 07:44:07;;;;;;;4.47;1.80;;;;;;;0.29;100.00;97843.36;3666804;79;44071;-19
2021/04/07 07:49:16;;;;;;;7.93;1.60;;;;;;;0.21;100.00;97847.05;3685018;79;43697;-20
2021/04/07 07:54:24;;;;;;;3.87;1.90;;;;;;;0.17;100.00;97843.41;3694244;79;44063;-20
2021/04/07 07:59:31;;;;;;;8.33;2.27;;;;;;;0.35;100.00;97867.27;3552951;82;44039;-19
2021/04/07 08:04:45;;;;;;;6.60;2.20;;;;;;;0.47;100.00;97862.88;3632529;80;43383;-19
2021/04/07 08:09:52;;;;;;;4.73;2.27;;;;;;;0.46;97.40;97871.78;3619132;80;43677;-20
2021/04/07 08:15:00;;;;;;;6.47;2.53;;;;;;;0.49;97.80;97880.84;3624534;80;43717;-20
2021/04/07 08:20:08;;;;;;;6.57;2.27;;;;;;;0.74;100.00;97877.23;3631186;80;43135;-20
2021/04/07 08:25:19;;;;;;;4.90;2.10;;;;;;;0.79;96.59;97886.17;3620599;80;43754;-20
2021/04/07 08:30:28;;;;;;;4.63;2.33;;;;;;;0.73;94.09;97891.94;3614938;80;43703;-20
2021/04/07 08:35:34;;;;;;;8.20;2.40;;;;;;;0.88;97.70;97897.42;3548919;82;43700;-20
2021/04/07 08:40:43;;;;;;;3.37;1.90;;;;;;;1.04;96.77;97902.93;3596986;80;44057;-20
2021/04/07 08:45:49;;;;;;;5.83;2.00;;;;;;;1.41;90.70;97889.55;3599623;81;43389;-20
2021/04/07 08:51:06;;;;;;;8.33;2.03;;;;;;;1.28;91.44;97895.42;3587168;81;43372;-20
2021/04/07 08:56:15;;;;;;;5.83;2.07;;;;;;;0.98;82.84;97891.46;3585713;81;44003;-20
2021/04/07 09:01:23;;;;;;;5.10;2.30;;;;;;;1.56;82.38;97902.63;3579960;80;44420;-20
2021/04/07 09:06:29;;;;;;;2.30;1.93;;;;;;;1.75;81.47;97903.39;3591712;80;44044;-20
2021/04/07 09:11:37;;;;;;;3.63;1.60;;;;;;;1.56;70.02;97921.21;3582381;80;43714;-20
2021/04/07 09:16:44;;;;;;;7.17;1.97;;;;;;;1.73;68.34;97912.78;3580324;80;43104;-20
2021/04/07 09:21:59;;;;;;;4.07;1.80;;;;;;;2.05;71.19;97911.26;3587290;80;43475;-20
2021/04/07 09:27:09;;;;;;;5.67;2.30;;;;;;;2.34;72.80;97901.48;3575968;80;44093;-19
2021/04/07 09:32:18;;;;;;;5.87;2.40;;;;;;;2.22;68.82;97913.91;3574858;80;43983;-19
2021/04/07 09:37:24;;;;;;;8.40;2.63;;;;;;;1.88;65.92;97916.55;3578790;80;44010;-19
2021/04/07 09:42:29;;;;;;;3.80;2.50;;;;;;;2.03;71.09;97932.64;3604417;80;43665;-20
2021/04/07 09:47:35;;;;;;;6.87;2.87;;;;;;;1.89;72.58;97919.58;3594362;80;44101;-20
2021/04/07 09:52:42;;;;;;;6.60;2.80;;;;;;;2.00;72.04;97923.08;3628354;80;44071;-19
2021/04/07 09:58:01;;;;;;;4.17;2.10;;;;;;;2.13;70.50;97938.06;3611686;80;43304;-20
2021/04/07 10:03:16;;;;;;;6.83;3.07;;;;;;;2.62;63.40;97934.69;3692622;79;43616;-19
2021/04/07 10:08:24;;;;;;;4.53;2.10;;;;;;;2.85;59.13;97942.13;3695335;79;43419;-19
2021/04/07 10:13:30;;;;;;;5.87;2.60;;;;;;;2.86;63.07;97919.87;3687909;79;43544;-19
2021/04/07 10:18:38;;;;;;;5.30;2.20;;;;;;;2.78;65.57;97919.16;3625166;80;44031;-20
2021/04/07 10:23:46;;;;;;;4.93;2.50;;;;;;;2.71;58.94;97912.66;3601679;80;43722;-19
2021/04/07 10:28:59;;;;;;;4.83;2.37;;;;;;;3.00;58.55;97924.05;3609239;80;44517;-19
2021/04/07 10:34:08;;;;;;;5.03;2.60;;;;;;;3.53;58.48;97918.41;3610139;80;43674;-19
2021/04/07 10:39:15;;;;;;;3.77;1.90;;;;;;;3.65;60.01;97922.70;3676197;79;43709;-20
2021/04/07 10:44:26;;;;;;;3.83;2.00;;;;;;;3.20;57.67;97929.58;3672225;79;44051;-20
2021/04/07 10:49:32;;;;;;;6.37;2.47;;;;;;;3.29;61.39;97933.30;3669693;78;44055;-20
2021/04/07 10:54:38;;;;;;;6.20;2.20;;;;;;;3.18;62.85;97931.52;3664254;79;44074;-19
2021/04/07 10:59:46;;;;;;;3.20;2.40;;;;;;;3.10;62.75;97926.81;3664349;79;43341;-20
2021/04/07 11:04:52;;;;;;;3.93;2.40;;;;;;;3.19;65.18;97929.22;3669012;79;44026;-20
2021/04/07 11:09:58;;;;;;;4.07;1.87;;;;;;;3.28;63.10;97931.61;3652508;79;44086;-20
2021/04/07 11:15:09;;;;;;;3.03;2.00;;;;;;;3.08;61.63;97938.93;3648122;79;44122;-19
2021/04/07 11:20:17;;;;;;;3.23;1.60;;;;;;;2.96;62.72;97949.72;3653343;79;43717;-20
2021/04/07 11:25:23;;;;;;;2.10;1.40;;;;;;;2.97;65.41;97950.08;3653857;79;43680;-20
2021/04/07 11:30:33;;;;;;;2.90;1.50;;;;;;;2.94;67.66;97937.88;3650153;79;26835;-20
2021/04/07 11:35:44;;;;;;;2.83;1.60;;;;;;;2.84;66.83;97944.42;3642939;79;43714;-19
2021/04/07 11:41:01;;;;;;;4.80;1.73;;;;;;;2.83;69.00;97945.88;3683208;79;44121;-20
2021/04/07 11:45:55;;;;;;;2.17;1.70;;;;;;;2.94;70.32;97951.19;3675647;79;43716;-20
2021/04/07 11:51:02;;;;;;;4.37;1.90;;;;;;;3.26;69.80;97950.35;3616508;79;44196;-20
2021/04/07 11:56:09;;;;;;;3.10;1.60;;;;;;;3.41;74.35;97940.23;3676404;79;44425;-20
2021/04/07 12:01:15;;;;;;;3.10;1.80;;;;;;;3.10;72.36;97953.93;3702680;78;43639;-21
2021/04/07 12:06:21;;;;;;;2.57;1.83;;;;;;;2.89;73.30;97956.88;3715521;78;44035;-20
2021/04/07 12:11:27;;;;;;;3.03;2.00;;;;;;;2.83;73.24;97952.53;3716070;78;43373;-20
2021/04/07 12:16:33;;;;;;;3.63;1.87;;;;;;;2.98;76.50;97962.41;3705940;78;43286;-19
2021/04/07 12:21:40;;;;;;;3.13;2.00;;;;;;;2.95;75.93;97946.22;3709974;78;43717;-19
2021/04/07 12:26:47;;;;;;;2.67;2.10;;;;;;;3.10;76.69;97961.92;3701001;78;44070;-19
2021/04/07 12:31:53;;;;;;;3.67;2.30;;;;;;;3.16;76.29;97943.63;3704838;78;44003;-21
2021/04/07 12:37:00;;;;;;;2.83;2.20;;;;;;;3.05;75.86;97939.67;3700617;78;44030;-20
2021/04/07 12:42:14;;;;;;;2.83;2.30;;;;;;;3.01;80.24;97947.04;3701198;78;44027;-20
2021/04/07 12:47:15;;;;;;;3.07;2.40;;;;;;;2.88;79.16;97944.55;3700451;78;43212;-20
2021/04/07 12:52:21;;;;;;;2.90;2.20;;;;;;;3.03;82.91;97945.10;3697121;78;44459;-20
2021/04/07 12:57:27;;;;;;;4.10;2.40;;;;;;;2.94;82.21;97945.86;3688386;78;43409;-20
2021/04/07 13:02:33;;;;;;;4.27;2.10;;;;;;;2.88;84.09;97947.70;3675873;78;44203;-19
2021/04/07 13:07:40;;;;;;;3.13;2.30;;;;;;;2.94;83.55;97953.84;3663788;79;43398;-20
2021/04/07 13:12:46;;;;;;;2.90;2.23;;;;;;;2.81;81.58;97941.17;3659454;79;43474;-20
2021/04/07 13:17:52;;;;;;;2.23;1.77;;;;;;;2.76;85.57;97942.87;3657973;79;44002;-20
2021/04/07 13:22:58;;;;;;;2.50;2.10;;;;;;;2.65;84.00;97938.91;3671808;79;43446;-20
2021/04/07 13:28:05;;;;;;;3.27;2.10;;;;;;;2.83;83.77;97955.20;3650363;79;44062;-22
2021/04/07 13:33:13;;;;;;;4.50;2.10;;;;;;;3.00;85.34;97944.02;3653198;79;44017;-20
2021/04/07 13:38:24;;;;;;;3.67;2.20;;;;;;;2.87;86.21;97943.34;3648811;79;43386;-22
2021/04/07 13:43:27;;;;;;;3.33;2.20;;;;;;;2.71;85.78;97934.41;3649569;79;44771;-21
2021/04/07 13:48:33;;;;;;;2.57;2.07;;;;;;;2.67;85.80;97930.33;3661503;79;44137;-20
2021/04/07 13:53:41;;;;;;;2.07;1.70;;;;;;;2.64;86.74;97935.41;3653054;79;44131;-20
2021/04/07 13:58:47;;;;;;;3.63;2.00;;;;;;;2.62;87.15;97936.84;3698167;79;44030;-21
2021/04/07 14:03:52;;;;;;;2.67;1.90;;;;;;;2.66;87.12;97936.11;3679654;79;43665;-21
2021/04/07 14:09:00;;;;;;;2.30;1.83;;;;;;;2.75;87.82;97933.20;3674246;79;44026;-21
2021/04/07 14:14:06;;;;;;;2.83;2.20;;;;;;;2.87;88.09;97941.52;3625037;80;44082;-21
2021/04/07 14:19:14;;;;;;;3.03;2.13;;;;;;;2.81;91.08;97939.38;3672262;79;44453;-21
2021/04/07 14:24:22;;;;;;;2.63;2.20;;;;;;;2.69;91.04;97937.20;3665528;79;42956;-21
2021/04/07 14:29:28;;;;;;;2.43;2.23;;;;;;;2.89;92.00;97934.73;3675442;79;43712;-21
2021/04/07 14:34:36;;;;;;;2.23;2.00;;;;;;;3.00;91.02;97937.36;3676598;79;43289;-21
2021/04/07 14:39:43;;;;;;;2.47;2.10;;;;;;;3.11;90.16;97935.66;3670037;79;43273;-21
2021/04/07 14:44:50;;;;;;;2.77;1.93;;;;;;;3.02;87.05;97954.05;3599712;80;44070;-21
2021/04/07 14:49:58;;;;;;;2.10;1.90;;;;;;;3.15;88.48;97943.73;3654558;79;43673;-21
2021/04/07 14:55:06;;;;;;;2.57;1.83;;;;;;;3.23;88.42;97926.67;3660813;79;44160;-22
2021/04/07 15:00:17;;;;;;;2.23;1.87;;;;;;;3.18;88.06;97918.20;3598194;80;43411;-21
2021/04/07 15:05:24;;;;;;;2.03;1.80;;;;;;;3.18;85.72;97929.69;3679100;78;43713;-22
2021/04/07 15:10:30;;;;;;;2.00;1.80;;;;;;;3.46;87.36;97926.57;3701774;78;43330;-20
2021/04/07 15:15:36;;;;;;;2.10;1.73;;;;;;;4.00;86.09;97932.17;3678413;78;44045;-21
2021/04/07 15:20:44;;;;;;;2.10;1.80;;;;;;;4.31;82.63;97927.34;3678552;78;43699;-22
2021/04/07 15:25:57;;;;;;;6.50;2.43;;;;;;;3.88;83.14;97924.39;3652356;79;43490;-21
2021/04/07 15:31:02;;;;;;;2.70;2.00;;;;;;;3.75;86.98;97937.91;3674835;78;44009;-21
2021/04/07 15:36:09;;;;;;;2.70;1.90;;;;;;;3.57;85.94;97931.84;3677626;78;44490;-22
2021/04/07 15:41:16;;;;;;;4.07;1.87;;;;;;;3.45;87.42;97924.38;3671888;78;43680;-22
2021/04/07 15:46:22;;;;;;;3.37;1.77;;;;;;;3.45;85.87;97920.87;3696986;78;43352;-20
2021/04/07 15:51:30;;;;;;;2.30;1.90;;;;;;;3.63;85.61;97923.31;3698428;78;43369;-20
2021/04/07 15:56:37;;;;;;;2.40;1.87;;;;;;;3.78;85.55;97926.48;3688467;78;43330;-20
2021/04/07 16:01:43;;;;;;;2.97;2.10;;;;;;;3.70;82.41;97912.48;3708700;78;42997;-21
2021/04/07 16:06:49;;;;;;;3.00;1.90;;;;;;;3.51;83.19;97922.55;3627461;80;43290;-21
2021/04/07 16:11:55;;;;;;;2.10;1.90;;;;;;;3.50;83.24;97925.31;3690960;79;44053;-21
2021/04/07 16:17:02;;;;;;;2.67;2.20;;;;;;;3.50;85.57;97927.51;3681573;79;44105;-21
2021/04/07 16:22:10;;;;;;;2.67;2.00;;;;;;;3.46;87.26;97922.58;3624566;80;43717;-22
2021/04/07 16:27:16;;;;;;;2.00;1.70;;;;;;;3.38;85.81;97924.05;3671964;79;43075;-20
2021/04/07 16:32:23;;;;;;;2.67;2.10;;;;;;;3.20;86.56;97937.56;3671748;79;43392;-21
2021/04/07 16:37:31;;;;;;;2.17;1.97;;;;;;;3.07;87.97;97933.25;3616223;80;44080;-23
2021/04/07 16:42:48;;;;;;;3.37;1.97;;;;;;;2.99;89.86;97941.02;3676470;79;44118;-20
2021/04/07 16:47:54;;;;;;;3.40;2.00;;;;;;;2.89;91.47;97950.23;3664625;79;44026;-20
2021/04/07 16:53:00;;;;;;;2.07;1.87;;;;;;;2.44;100.00;97972.89;3614241;80;42649;-21
2021/04/07 16:58:06;;;;;;;3.47;2.70;;;;;;;2.34;100.00;97958.64;3657965;79;43967;-21
2021/04/07 17:03:13;;;;;;;4.80;2.90;;;;;;;1.70;100.00;97970.14;3671163;78;44034;-20
2021/04/07 17:08:18;;;;;;;3.73;2.73;;;;;;;1.50;100.00;97977.78;3688500;78;43428;-20
2021/04/07 17:13:25;;;;;;;4.73;3.03;;;;;;;1.35;100.00;97970.48;3685457;78;43077;-19
2021/04/07 17:18:30;;;;;;;3.33;2.70;;;;;;;1.31;100.00;97976.14;3684328;78;44041;-20
2021/04/07 17:23:37;;;;;;;5.67;3.10;;;;;;;1.23;100.00;97990.80;3681390;78;44113;-20
2021/04/07 17:28:43;;;;;;;3.57;2.97;;;;;;;1.23;100.00;97990.80;3673443;79;43313;-19
2021/04/07 17:33:50;;;;;;;3.73;2.87;;;;;;;1.21;100.00;97990.56;3678430;78;43689;-20
2021/04/07 17:38:55;;;;;;;5.23;3.17;;;;;;;1.20;100.00;97992.84;3675575;78;44016;-19
2021/04/07 17:44:02;;;;;;;4.70;3.00;;;;;;;1.18;100.00;98000.06;3676793;78;43664;-20
2021/04/07 17:49:07;;;;;;;2.93;2.17;;;;;;;1.18;100.00;98005.38;3674338;78;43720;-19
2021/04/07 17:54:14;;;;;;;3.37;2.53;;;;;;;1.17;100.00;98003.20;3668659;78;43366;-19
2021/04/07 17:59:20;;;;;;;3.30;2.27;;;;;;;1.12;100.00;98021.26;3704800;78;44463;-20
2021/04/07 18:04:25;;;;;;;3.53;2.80;;;;;;;1.04;100.00;98020.52;3691262;79;43711;-19
2021/04/07 18:09:31;;;;;;;2.63;2.10;;;;;;;1.08;100.00;98029.92;3656510;79;43476;-20
2021/04/07 18:14:37;;;;;;;2.47;2.10;;;;;;;1.20;100.00;98028.66;3664410;79;43125;-22
2021/04/07 18:19:46;;;;;;;3.10;2.33;;;;;;;1.28;100.00;98032.95;3652072;79;44353;-20
2021/04/07 18:24:51;;;;;;;3.10;1.87;;;;;;;1.38;100.00;98033.10;3651356;79;43998;-19
2021/04/07 18:29:57;;;;;;;3.93;2.40;;;;;;;1.48;100.00;98038.09;3652325;79;42656;-19
2021/04/07 18:35:03;;;;;;;3.83;2.50;;;;;;;1.57;100.00;98051.67;3651472;79;43110;-20
2021/04/07 18:40:13;;;;;;;3.10;2.40;;;;;;;1.62;100.00;98058.34;3654942;79;43360;-19
2021/04/07 18:45:19;;;;;;;4.23;2.30;;;;;;;1.61;100.00;98051.80;3648811;79;43365;-19
2021/04/07 18:50:27;;;;;;;3.40;2.70;;;;;;;1.57;100.00;98068.93;3643695;79;44018;-19
2021/04/07 18:55:38;;;;;;;3.40;2.63;;;;;;;1.58;100.00;98072.79;3641977;79;44028;-20
2021/04/07 19:00:45;;;;;;;4.80;2.70;;;;;;;1.55;100.00;98076.98;3641135;79;43681;-20
2021/04/07 19:05:51;;;;;;;4.83;2.83;;;;;;;1.52;100.00;98102.46;3636140;79;44131;-20
2021/04/07 19:10:57;;;;;;;4.47;2.53;;;;;;;1.59;100.00;98097.55;3632443;79;43701;-18
2021/04/07 19:16:03;;;;;;;4.40;3.00;;;;;;;1.64;100.00;98094.06;3637036;79;42802;-21
2021/04/07 19:21:09;;;;;;;2.93;1.80;;;;;;;1.64;100.00;98091.41;3630850;79;44058;-18
2021/04/07 19:26:17;;;;;;;5.70;2.30;;;;;;;1.65;100.00;98102.39;3627208;79;44267;-19
2021/04/07 19:31:24;;;;;;;5.27;1.90;;;;;;;1.61;100.00;98107.55;3626718;79;43283;-18
2021/04/07 19:36:32;;;;;;;3.50;1.87;;;;;;;1.59;100.00;98115.64;3622817;79;43965;-21
2021/04/07 19:41:37;;;;;;;4.30;2.10;;;;;;;1.54;100.00;98117.77;3621603;79;44099;-19
2021/04/07 19:46:43;;;;;;;5.80;1.73;;;;;;;1.49;100.00;98154.44;3643552;79;44055;-19
2021/04/07 19:51:51;;;;;;;3.83;1.50;;;;;;;1.54;100.00;98131.05;3647116;79;43694;-18
2021/04/07 19:56:57;;;;;;;4.30;1.23;;;;;;;1.39;100.00;98143.63;3614834;79;43349;-19
2021/04/07 20:02:03;;;;;;;2.47;1.07;;;;;;;1.29;100.00;98141.27;3612644;79;43681;-19
2021/04/07 20:07:10;;;;;;;2.57;1.20;;;;;;;1.29;100.00;98169.13;3623859;79;43352;-19
2021/04/07 20:12:16;;;;;;;6.17;1.63;;;;;;;1.26;100.00;98161.38;3590811;80;43305;-19
2021/04/07 20:17:22;;;;;;;18.50;9.40;;;;;;;1.22;100.00;98172.23;3621488;80;42931;-19
2021/04/07 20:22:33;;;;;;;3.13;1.90;;;;;;;1.14;100.00;98186.50;3688985;79;44165;-19
2021/04/07 20:27:36;;;;;;;2.20;1.17;;;;;;;1.09;100.00;98185.99;3678663;79;44018;-19
2021/04/07 20:32:41;;;;;;;3.63;1.10;;;;;;;1.09;100.00;98182.02;3625092;80;43718;-19
2021/04/07 20:37:48;;;;;;;2.70;1.10;;;;;;;1.09;100.00;98196.61;3558350;82;44053;-20
2021/04/07 20:42:54;;;;;;;3.60;1.17;;;;;;;1.11;100.00;98187.20;3619655;80;44132;-20
2021/04/07 20:48:01;;;;;;;3.70;0.87;;;;;;;1.03;100.00;98182.42;3602773;80;43681;-19
2021/04/07 20:53:08;;;;;;;4.30;1.00;;;;;;;1.01;100.00;98202.90;3599600;80;43372;-20
2021/04/07 20:58:14;;;;;;;7.30;3.40;;;;;;;1.07;100.00;98194.53;3608193;80;44124;-18
2021/04/07 21:03:20;;;;;;;5.27;1.47;;;;;;;1.05;100.00;98203.06;3684459;79;44035;-22
2021/04/07 21:08:29;;;;;;;4.30;1.60;;;;;;;1.07;100.00;98221.89;3645796;79;43386;-18
2021/04/07 21:13:36;;;;;;;2.33;1.20;;;;;;;1.12;100.00;98238.82;3661120;79;44447;-19
2021/04/07 21:18:43;;;;;;;6.00;1.60;;;;;;;1.16;100.00;98236.83;3666357;79;44439;-24
2021/04/07 21:23:49;;;;;;;7.73;2.03;;;;;;;1.15;100.00;98232.47;3660496;79;44002;-24
2021/04/07 21:28:56;;;;;;;4.80;1.43;;;;;;;1.18;100.00;98238.41;3652791;79;43986;-24
2021/04/07 21:34:05;;;;;;;5.23;1.53;;;;;;;1.14;100.00;98255.48;3655722;79;43357;-22
2021/04/07 21:39:11;;;;;;;3.03;1.30;;;;;;;1.24;100.00;98249.08;3655972;79;43992;-24
2021/04/07 21:44:17;;;;;;;5.17;1.90;;;;;;;1.17;100.00;98265.06;3657518;79;44024;-23
2021/04/07 21:49:23;;;;;;;7.83;2.27;;;;;;;1.14;100.00;98262.61;3650143;79;43131;-24
2021/04/07 21:54:29;;;;;;;3.67;1.70;;;;;;;1.15;100.00;98278.42;3647674;79;43731;-24
2021/04/07 21:59:36;;;;;;;5.13;1.83;;;;;;;1.13;100.00;98275.50;3645739;79;44034;-24
2021/04/07 22:04:42;;;;;;;6.17;1.83;;;;;;;1.10;100.00;98272.59;3671567;79;44474;-24
2021/04/07 22:09:50;;;;;;;4.87;1.77;;;;;;;1.07;100.00;98290.04;3679286;79;44006;-24
2021/04/07 22:14:56;;;;;;;6.03;1.70;;;;;;;1.10;100.00;98283.66;3692616;79;42815;-24
2021/04/07 22:20:01;;;;;;;5.43;1.60;;;;;;;1.03;100.00;98304.00;3689496;79;43580;-24
2021/04/07 22:25:13;;;;;;;4.57;2.00;;;;;;;0.99;100.00;98314.92;3686092;79;43321;-24
2021/04/07 22:30:22;;;;;;;2.67;1.43;;;;;;;1.02;100.00;98310.72;3687676;79;43682;-24
2021/04/07 22:35:28;;;;;;;3.50;1.60;;;;;;;1.04;100.00;98319.42;3674574;79;43684;-24
2021/04/07 22:40:34;;;;;;;7.50;1.60;;;;;;;1.02;100.00;98307.60;3682229;79;44623;-22
2021/04/07 22:45:40;;;;;;;4.53;1.97;;;;;;;1.03;100.00;98312.41;3682631;79;42930;-23
2021/04/07 22:50:46;;;;;;;4.47;1.57;;;;;;;1.00;100.00;98323.26;3673749;79;44565;-23
2021/04/07 22:55:52;;;;;;;6.23;1.20;;;;;;;1.05;100.00;98306.53;3668752;79;43696;-23
2021/04/07 23:00:58;;;;;;;5.17;1.67;;;;;;;1.06;100.00;98313.05;3672303;79;44207;-22
2021/04/07 23:06:05;;;;;;;6.33;1.30;;;;;;;1.07;100.00;98317.41;3661720;79;44139;-21
2021/04/07 23:11:10;;;;;;;5.13;1.53;;;;;;;1.03;100.00;98314.61;3664362;79;43009;-22
2021/04/07 23:16:17;;;;;;;3.97;1.63;;;;;;;1.03;100.00;98324.36;3659874;79;44091;-21
2021/04/07 23:21:24;;;;;;;4.03;1.37;;;;;;;0.97;100.00;98323.45;3674809;79;44093;-22
2021/04/07 23:26:31;;;;;;;5.47;1.60;;;;;;;0.98;100.00;98338.42;3652785;79;44065;-21
2021/04/07 23:31:37;;;;;;;4.83;1.40;;;;;;;0.88;100.00;98339.50;3598208;80;43689;-22
2021/04/07 23:36:44;;;;;;;6.70;1.50;;;;;;;0.90;100.00;98343.74;3651059;79;43400;-22
2021/04/07 23:41:50;;;;;;;5.87;1.90;;;;;;;0.89;100.00;98345.19;3649866;79;43742;-22
2021/04/07 23:46:56;;;;;;;5.33;2.53;;;;;;;0.81;100.00;98352.31;3590799;80;43684;-22
2021/04/07 23:52:02;;;;;;;5.50;1.60;;;;;;;0.76;100.00;98358.42;3646929;79;43725;-22
2021/04/07 23:57:08;;;;;;;3.93;1.50;;;;;;;0.67;100.00;98361.19;3645880;79;44070;-22
